Time;durP1;ratioP1;P1;durP2;ratioP2;P2;SDS_P1;SDS_P2;PMS_P1;PMS_P2;Temp;Humidity;BMP_temperature;BMP_pressure;BME280_temperature;BME280_humidity;BME280_pressure;Samples;Min_cycle;Max_cycle;Signal;HPM_P1;HPM_P2
2022/06/04 00:01:27;;;;;;;9.70;7.23;;;;;;;;;;4984461;28;20191;-82
2022/06/04 00:04:31;;;;;;;9.97;7.80;;;;;;;;;;4995270;28;20186;-82
2022/06/04 00:07:36;;;;;;;10.13;7.43;;;;;;;;;;4984442;28;20209;-82
2022/06/04 00:17:32;;;;;;;9.50;6.00;;;;;;;;;;4998678;23;20218;31
2022/06/04 00:20:36;;;;;;;8.33;7.40;;;;;;;;;;4913081;29;20216;-84
2022/06/04 00:23:41;;;;;;;11.40;6.70;;;;;;;;;;4925822;29;20185;-84
2022/06/04 00:26:46;;;;;;;10.33;7.03;;;;;;;;;;4936637;29;20272;-84
2022/06/04 00:29:50;;;;;;;14.73;8.77;;;;;;;;;;4955020;29;20235;-84
2022/06/04 00:32:54;;;;;;;11.90;8.87;;;;;;;;;;4944683;29;20192;-83
2022/06/04 00:35:59;;;;;;;17.90;9.07;;;;;;;;;;4944569;29;20227;-83
2022/06/04 00:39:03;;;;;;;16.20;9.93;;;;;;;;;;4944147;29;20234;-83
2022/06/04 00:42:14;;;;;;;80.27;8.97;;;;;;;;;;4944665;29;20204;-83
2022/06/04 00:45:21;;;;;;;51.87;7.10;;;;;;;;;;4933678;29;20183;-83
2022/06/04 00:48:26;;;;;;;14.60;8.17;;;;;;;;;;4944379;29;20223;-83
2022/06/04 00:51:30;;;;;;;9.60;8.50;;;;;;;;;;4955425;29;20191;-83
2022/06/04 00:54:35;;;;;;;9.33;8.33;;;;;;;;;;4955434;28;20187;-83
2022/06/04 00:57:58;;;;;;;15.13;8.70;;;;;;;;;;4944290;29;20176;-83
2022/06/04 01:01:07;;;;;;;11.53;8.17;;;;;;;;;;4944600;29;20196;-83
2022/06/04 01:04:47;;;;;;;11.47;7.97;;;;;;;;;;4944080;29;20208;-83
2022/06/04 01:08:03;;;;;;;13.00;8.70;;;;;;;;;;4955195;29;20626;-83
2022/06/04 01:11:35;;;;;;;14.60;8.40;;;;;;;;;;4955224;29;20182;-83
2022/06/04 01:14:56;;;;;;;9.33;7.60;;;;;;;;;;4944054;29;20179;-83
2022/06/04 01:18:21;;;;;;;8.63;6.57;;;;;;;;;;4943820;29;20223;-83
2022/06/04 01:21:44;;;;;;;10.93;6.60;;;;;;;;;;4955102;29;20188;-83
2022/06/04 01:25:17;;;;;;;8.60;6.67;;;;;;;;;;4943855;29;20180;-83
2022/06/04 01:28:22;;;;;;;9.57;7.10;;;;;;;;;;4954865;29;20215;-83
2022/06/04 01:31:37;;;;;;;12.00;7.83;;;;;;;;;;4943455;28;20187;-83
2022/06/04 01:34:52;;;;;;;11.40;7.47;;;;;;;;;;4954747;29;20191;-82
2022/06/04 01:38:24;;;;;;;11.77;7.73;;;;;;;;;;4943715;29;20212;-82
2022/06/04 01:41:40;;;;;;;8.43;7.47;;;;;;;;;;4932889;29;20195;-82
2022/06/04 01:44:46;;;;;;;12.27;8.80;;;;;;;;;;4943737;29;20536;-83
2022/06/04 01:47:51;;;;;;;17.03;8.10;;;;;;;;;;4932716;29;20219;-83
2022/06/04 01:50:59;;;;;;;12.37;7.83;;;;;;;;;;4943381;29;20203;-83
2022/06/04 01:54:17;;;;;;;10.23;8.17;;;;;;;;;;4943574;29;20186;-83
2022/06/04 01:58:00;;;;;;;10.30;8.83;;;;;;;;;;4954525;29;20214;-83
2022/06/04 02:01:09;;;;;;;16.37;8.13;;;;;;;;;;4943663;29;20202;-83
2022/06/04 02:04:19;;;;;;;15.30;7.20;;;;;;;;;;4954577;29;20184;-83
2022/06/04 02:07:31;;;;;;;12.97;6.97;;;;;;;;;;4943858;29;20184;-83
2022/06/04 02:10:44;;;;;;;12.23;7.03;;;;;;;;;;4943564;29;20204;-83
2022/06/04 02:13:51;;;;;;;52.03;6.17;;;;;;;;;;4932433;29;20206;-83
2022/06/04 02:17:04;;;;;;;12.87;6.43;;;;;;;;;;4932426;29;20226;-83
2022/06/04 02:20:09;;;;;;;9.80;6.30;;;;;;;;;;4943118;29;20210;-83
2022/06/04 02:23:14;;;;;;;31.80;6.00;;;;;;;;;;4943350;29;20175;-83
2022/06/04 02:26:18;;;;;;;9.50;6.23;;;;;;;;;;4943488;29;20184;-83
2022/06/04 02:29:25;;;;;;;6.30;5.70;;;;;;;;;;4932589;29;20698;-83
2022/06/04 02:32:37;;;;;;;5.73;5.23;;;;;;;;;;4943072;29;20199;-83
2022/06/04 02:36:01;;;;;;;52.63;5.50;;;;;;;;;;4954128;29;20532;-83
2022/06/04 02:39:12;;;;;;;14.33;4.80;;;;;;;;;;4943069;29;20232;-83
2022/06/04 02:42:26;;;;;;;7.43;6.57;;;;;;;;;;4965104;28;20200;-83
2022/06/04 02:45:34;;;;;;;9.17;6.53;;;;;;;;;;4957699;29;20199;-83
2022/06/04 02:48:42;;;;;;;7.03;6.17;;;;;;;;;;4957694;29;20219;-83
2022/06/04 02:51:49;;;;;;;7.73;6.60;;;;;;;;;;4935734;29;20187;-83
2022/06/04 02:55:19;;;;;;;13.43;7.63;;;;;;;;;;4946898;29;20192;-83
2022/06/04 02:58:25;;;;;;;8.17;6.70;;;;;;;;;;4957382;29;20207;-83
2022/06/04 03:01:33;;;;;;;10.00;7.27;;;;;;;;;;4946563;29;20187;-83
2022/06/04 03:04:52;;;;;;;8.33;6.43;;;;;;;;;;4946550;29;20668;-84
2022/06/04 03:08:04;;;;;;;7.97;7.27;;;;;;;;;;4935858;29;20215;-84
2022/06/04 03:11:08;;;;;;;7.63;6.93;;;;;;;;;;4935324;29;20180;-83
2022/06/04 03:14:14;;;;;;;8.47;6.87;;;;;;;;;;4946114;29;20184;-84
2022/06/04 03:17:18;;;;;;;7.37;6.67;;;;;;;;;;4957268;29;20223;-83
2022/06/04 03:20:25;;;;;;;7.37;6.30;;;;;;;;;;4935480;29;20203;-83
2022/06/04 03:23:29;;;;;;;6.47;5.53;;;;;;;;;;4935494;29;20179;-83
2022/06/04 03:26:33;;;;;;;12.90;5.60;;;;;;;;;;4957828;29;20175;-84
2022/06/04 03:29:38;;;;;;;9.07;6.37;;;;;;;;;;4945973;29;20600;-83
2022/06/04 03:32:42;;;;;;;10.70;6.60;;;;;;;;;;4957191;29;20184;-83
2022/06/04 03:35:46;;;;;;;7.33;6.60;;;;;;;;;;4934908;29;20204;-83
2022/06/04 03:38:51;;;;;;;9.93;6.73;;;;;;;;;;4934976;29;20219;-83
2022/06/04 03:41:55;;;;;;;6.80;5.87;;;;;;;;;;4945901;29;20175;-83
2022/06/04 03:45:00;;;;;;;6.67;6.03;;;;;;;;;;4945755;29;20184;-83
2022/06/04 03:48:04;;;;;;;8.30;6.00;;;;;;;;;;4956485;29;20694;-83
2022/06/04 03:51:08;;;;;;;5.93;5.33;;;;;;;;;;4945568;29;20631;-83
2022/06/04 03:54:12;;;;;;;6.23;5.63;;;;;;;;;;4945282;28;20187;-83
2022/06/04 04:00:41;;;;;;;8.47;5.37;;;;;;;;;;4956733;29;20192;-83
2022/06/04 04:03:45;;;;;;;7.43;6.43;;;;;;;;;;4945511;29;20179;-83
2022/06/04 04:06:49;;;;;;;10.60;6.43;;;;;;;;;;4934419;29;20180;-83
2022/06/04 04:09:53;;;;;;;5.47;4.97;;;;;;;;;;4945131;29;20226;-83
2022/06/04 04:12:58;;;;;;;7.13;6.00;;;;;;;;;;4944924;29;20543;-88
2022/06/04 04:16:02;;;;;;;8.17;5.50;;;;;;;;;;4945435;29;20188;-85
2022/06/04 04:19:06;;;;;;;6.10;5.50;;;;;;;;;;4944901;29;20227;-85
2022/06/04 04:22:10;;;;;;;6.43;5.37;;;;;;;;;;4945109;29;20179;-84
2022/06/04 04:25:17;;;;;;;6.90;5.97;;;;;;;;;;4945005;29;20520;-84
2022/06/04 04:28:21;;;;;;;5.03;4.63;;;;;;;;;;4933918;29;20551;-84
2022/06/04 04:31:26;;;;;;;6.17;5.57;;;;;;;;;;4944835;29;20184;-84
2022/06/04 04:34:30;;;;;;;6.13;5.53;;;;;;;;;;4955727;29;20183;-84
2022/06/04 04:37:35;;;;;;;5.10;4.63;;;;;;;;;;4944638;29;20207;-87
2022/06/04 04:40:42;;;;;;;5.50;5.00;;;;;;;;;;4944734;29;20187;-86
2022/06/04 04:43:46;;;;;;;5.67;5.13;;;;;;;;;;4944812;29;20187;-86
2022/06/04 04:46:51;;;;;;;5.47;4.97;;;;;;;;;;4944575;29;20176;-86
2022/06/04 04:49:54;;;;;;;5.50;4.10;;;;;;;;;;4944787;29;20535;-86
2022/06/04 04:53:00;;;;;;;8.00;5.30;;;;;;;;;;4933613;29;20187;-86
2022/06/04 04:56:05;;;;;;;4.90;4.50;;;;;;;;;;4933498;29;20183;-86
2022/06/04 04:59:09;;;;;;;5.07;4.20;;;;;;;;;;4944614;29;20207;-86
2022/06/04 05:02:14;;;;;;;5.27;4.20;;;;;;;;;;4933545;29;20802;-86
2022/06/04 05:05:18;;;;;;;6.80;3.77;;;;;;;;;;4944307;29;20631;-86
2022/06/04 05:08:22;;;;;;;4.50;4.10;;;;;;;;;;4933236;29;20215;-86
2022/06/04 05:11:29;;;;;;;5.20;4.80;;;;;;;;;;4933434;29;20183;-86
2022/06/04 05:14:33;;;;;;;5.03;4.47;;;;;;;;;;4933345;29;20175;-86
2022/06/04 05:17:37;;;;;;;4.37;3.97;;;;;;;;;;4954656;29;20227;-86
2022/06/04 05:20:41;;;;;;;5.17;4.73;;;;;;;;;;4944015;29;20192;-86
2022/06/04 05:23:46;;;;;;;5.27;4.40;;;;;;;;;;4943658;29;20199;-86
2022/06/04 05:26:50;;;;;;;4.53;3.90;;;;;;;;;;4955007;29;20179;-86
2022/06/04 05:29:56;;;;;;;5.60;5.10;;;;;;;;;;4944500;29;20211;-86
2022/06/04 05:33:01;;;;;;;10.37;4.40;;;;;;;;;;4943806;29;20188;-86
2022/06/04 05:36:05;;;;;;;3.70;3.40;;;;;;;;;;4933094;29;20214;-86
2022/06/04 05:39:10;;;;;;;8.17;5.83;;;;;;;;;;4943593;29;20211;-84
2022/06/04 05:42:14;;;;;;;6.40;5.60;;;;;;;;;;4932894;29;20254;-84
2022/06/04 05:45:18;;;;;;;7.20;6.50;;;;;;;;;;4954747;29;20179;-84
2022/06/04 05:48:22;;;;;;;6.57;5.97;;;;;;;;;;4954667;29;20215;-84
2022/06/04 05:51:30;;;;;;;7.00;6.40;;;;;;;;;;4933226;29;20179;-84
2022/06/04 05:54:35;;;;;;;8.07;7.27;;;;;;;;;;4943733;29;20183;-84
2022/06/04 05:57:39;;;;;;;7.40;6.80;;;;;;;;;;4943578;29;20203;-84
2022/06/04 06:00:43;;;;;;;7.00;6.23;;;;;;;;;;4932714;29;20192;-84
2022/06/04 06:03:48;;;;;;;6.97;6.27;;;;;;;;;;4943665;29;20183;-83
2022/06/04 06:06:53;;;;;;;7.20;6.50;;;;;;;;;;4932597;29;20180;-84
2022/06/04 06:09:57;;;;;;;9.60;6.10;;;;;;;;;;4943569;29;20520;-84
2022/06/04 06:13:01;;;;;;;7.67;6.97;;;;;;;;;;4943573;29;20179;-84
2022/06/04 06:16:15;;;;;;;7.50;6.53;;;;;;;;;;4954443;29;20191;-84
2022/06/04 06:19:21;;;;;;;7.03;6.10;;;;;;;;;;4987100;23;20230;-83
2022/06/04 06:22:25;;;;;;;7.40;6.70;;;;;;;;;;4985875;28;20636;-84
2022/06/04 06:25:29;;;;;;;8.73;6.17;;;;;;;;;;4974675;28;20179;-84
2022/06/04 06:28:35;;;;;;;7.83;6.70;;;;;;;;;;4985460;28;20573;-84
2022/06/04 06:31:39;;;;;;;8.03;7.27;;;;;;;;;;4995784;28;20652;-84
2022/06/04 06:34:44;;;;;;;7.23;5.50;;;;;;;;;;5007667;28;20526;-84
2022/06/04 06:37:49;;;;;;;13.63;8.00;;;;;;;;;;4996437;28;20205;-86
2022/06/04 06:40:55;;;;;;;7.77;7.07;;;;;;;;;;4996692;28;20654;-84
2022/06/04 06:43:59;;;;;;;9.53;7.40;;;;;;;;;;4996620;28;20530;-84
2022/06/04 06:47:03;;;;;;;7.80;7.03;;;;;;;;;;4996372;28;20178;-84
2022/06/04 06:50:08;;;;;;;8.00;7.27;;;;;;;;;;4996177;28;20210;-84
2022/06/04 06:53:12;;;;;;;7.40;6.70;;;;;;;;;;4996203;28;20634;-83
2022/06/04 06:56:22;;;;;;;7.60;6.23;;;;;;;;;;4996227;28;20178;-83
2022/06/04 06:59:27;;;;;;;6.40;5.80;;;;;;;;;;5007461;28;20214;-83
2022/06/04 07:02:31;;;;;;;8.17;6.40;;;;;;;;;;4996344;28;20190;-83
2022/06/04 07:05:35;;;;;;;8.07;6.17;;;;;;;;;;5007437;28;20625;-84
2022/06/04 07:08:41;;;;;;;6.93;5.77;;;;;;;;;;4995875;28;20210;-84
2022/06/04 07:11:46;;;;;;;6.10;5.47;;;;;;;;;;4995938;28;20186;-83
2022/06/04 07:14:50;;;;;;;6.23;5.70;;;;;;;;;;4996050;28;20182;-83
2022/06/04 07:17:54;;;;;;;7.57;6.73;;;;;;;;;;4995428;28;20202;-84
2022/06/04 07:20:59;;;;;;;7.83;7.13;;;;;;;;;;5007244;28;20206;-83
2022/06/04 07:24:04;;;;;;;7.00;6.40;;;;;;;;;;5007046;28;20522;-83
2022/06/04 07:27:08;;;;;;;6.60;6.00;;;;;;;;;;4995015;28;20190;-83
2022/06/04 07:30:12;;;;;;;5.80;5.30;;;;;;;;;;4979578;28;20194;-83
2022/06/04 07:33:17;;;;;;;6.07;4.93;;;;;;;;;;4995910;28;20178;-84
2022/06/04 07:36:32;;;;;;;5.10;4.60;;;;;;;;;;4965002;28;20183;-84
2022/06/04 07:39:36;;;;;;;8.13;5.03;;;;;;;;;;4976011;28;20689;-83
2022/06/04 07:42:41;;;;;;;7.10;5.27;;;;;;;;;;4965142;28;20519;-84
2022/06/04 07:45:45;;;;;;;6.53;5.30;;;;;;;;;;4993877;28;20194;-84
2022/06/04 07:48:50;;;;;;;7.20;5.50;;;;;;;;;;5006871;28;20210;-84
2022/06/04 07:51:54;;;;;;;5.23;4.83;;;;;;;;;;4975761;28;20531;-83
2022/06/04 07:54:59;;;;;;;7.40;4.80;;;;;;;;;;4988407;28;20539;-83
2022/06/04 07:58:03;;;;;;;4.50;4.10;;;;;;;;;;4984294;28;20202;-84
2022/06/04 08:01:09;;;;;;;5.17;4.40;;;;;;;;;;4995213;28;20186;-84
2022/06/04 08:04:14;;;;;;;3.87;3.47;;;;;;;;;;4982380;28;20190;-84
2022/06/04 08:07:17;;;;;;;3.73;3.40;;;;;;;;;;5006419;28;20182;-84
2022/06/04 08:10:22;;;;;;;3.33;3.03;;;;;;;;;;4994856;28;20178;-85
2022/06/04 08:13:28;;;;;;;10.00;3.00;;;;;;;;;;4983743;28;20637;-85
2022/06/04 08:16:36;;;;;;;4.57;2.60;;;;;;;;;;4979882;28;20552;-85
2022/06/04 08:19:40;;;;;;;2.40;2.20;;;;;;;;;;4994699;28;20217;-85
2022/06/04 08:22:45;;;;;;;3.43;2.30;;;;;;;;;;4983686;28;20184;-85
2022/06/04 08:25:51;;;;;;;3.00;2.40;;;;;;;;;;4983301;28;20286;-85
2022/06/04 08:28:56;;;;;;;3.57;2.20;;;;;;;;;;4984875;28;20221;-84
2022/06/04 08:32:02;;;;;;;3.73;2.20;;;;;;;;;;4964037;28;20174;-85
2022/06/04 08:35:06;;;;;;;5.50;2.30;;;;;;;;;;4963813;28;20181;-82
2022/06/04 08:38:11;;;;;;;3.13;1.80;;;;;;;;;;4963667;28;20699;-84
2022/06/04 08:41:36;;;;;;;3.22;1.95;;;;;;;;;;4971165;28;20187;-84
2022/06/04 08:44:48;;;;;;;3.10;1.70;;;;;;;;;;4963930;28;20182;-84
2022/06/04 08:47:53;;;;;;;6.33;2.10;;;;;;;;;;4996414;28;20199;-83
2022/06/04 08:50:57;;;;;;;4.37;1.90;;;;;;;;;;4981305;28;20194;-84
2022/06/04 08:57:34;;;;;;;2.43;2.00;;;;;;;;;;4990742;28;20200;-84
2022/06/04 09:00:52;;;;;;;4.10;2.07;;;;;;;;;;4973155;28;20517;-86
2022/06/04 09:04:54;;;;;;;7.80;2.30;;;;;;;;;;4986671;28;20186;-88
2022/06/04 09:08:03;;;;;;;2.33;1.73;;;;;;;;;;4923682;29;20195;-83
2022/06/04 09:11:17;;;;;;;5.23;2.10;;;;;;;;;;4913483;28;20197;-83
2022/06/04 09:14:33;;;;;;;4.13;2.10;;;;;;;;;;4970933;28;20538;-83
2022/06/04 09:17:47;;;;;;;4.47;1.83;;;;;;;;;;4982262;28;20534;-82
2022/06/04 09:20:55;;;;;;;3.70;1.90;;;;;;;;;;4980906;28;20201;-83
2022/06/04 09:23:59;;;;;;;4.60;1.77;;;;;;;;;;4981015;28;20534;-82
2022/06/04 09:27:26;;;;;;;3.03;1.83;;;;;;;;;;4973906;28;20183;-83
2022/06/04 09:30:37;;;;;;;3.90;2.20;;;;;;;;;;4970376;28;20196;-83
2022/06/04 09:34:31;;;;;;;3.13;1.93;;;;;;;;;;4971049;28;20197;-83
2022/06/04 09:37:42;;;;;;;3.20;2.20;;;;;;;;;;4959564;28;20199;-82
2022/06/04 09:40:57;;;;;;;2.70;2.50;;;;;;;;;;4965634;28;20198;-83
2022/06/04 09:44:12;;;;;;;3.23;2.73;;;;;;;;;;4952035;28;20186;-83
2022/06/04 09:47:43;;;;;;;7.90;2.80;;;;;;;;;;4973978;28;20186;-83
2022/06/04 09:50:57;;;;;;;6.63;3.33;;;;;;;;;;4971444;28;20188;-83
2022/06/04 09:54:03;;;;;;;5.43;4.37;;;;;;;;;;5006379;28;20200;-85
2022/06/04 09:57:28;;;;;;;6.00;4.73;;;;;;;;;;4979962;28;20202;-89
2022/06/04 10:00:34;;;;;;;11.33;4.43;;;;;;;;;;4977817;28;20196;-84
2022/06/04 10:03:41;;;;;;;5.10;4.37;;;;;;;;;;4984937;28;20207;-85
2022/06/04 10:06:45;;;;;;;10.47;5.43;;;;;;;;;;4985590;28;20185;-84
2022/06/04 10:09:58;;;;;;;6.83;5.30;;;;;;;;;;4985783;28;20220;-85
2022/06/04 10:16:46;;;;;;;5.93;5.18;;;;;;;;;;4997750;28;20189;-85
2022/06/04 10:19:52;;;;;;;4.78;4.25;;;;;;;;;;4996752;28;20229;-82
2022/06/04 10:22:57;;;;;;;7.38;5.00;;;;;;;;;;4997393;28;20186;-84
2022/06/04 10:26:21;;;;;;;6.50;4.65;;;;;;;;;;4976310;28;20191;-84
2022/06/04 10:29:44;;;;;;;6.00;4.85;;;;;;;;;;4966702;28;20217;-84
2022/06/04 10:33:19;;;;;;;6.15;3.88;;;;;;;;;;4958869;28;20291;-84
2022/06/04 10:36:36;;;;;;;5.63;4.18;;;;;;;;;;4988838;28;20588;-85
2022/06/04 10:39:55;;;;;;;5.60;4.13;;;;;;;;;;4982345;28;20579;-85
2022/06/04 10:43:08;;;;;;;4.10;3.70;;;;;;;;;;4960655;28;20205;-85
2022/06/04 10:46:29;;;;;;;8.55;3.63;;;;;;;;;;4972188;28;20191;-85
2022/06/04 10:49:39;;;;;;;6.88;4.88;;;;;;;;;;4993007;28;20225;-84
2022/06/04 10:52:51;;;;;;;4.25;3.83;;;;;;;;;;4984899;28;20665;-84
2022/06/04 10:56:01;;;;;;;5.25;4.53;;;;;;;;;;4988024;28;20303;-85
2022/06/04 10:59:11;;;;;;;4.50;3.90;;;;;;;;;;4977694;28;20220;-84
2022/06/04 11:02:37;;;;;;;5.60;3.80;;;;;;;;;;4996660;28;20563;-85
2022/06/04 11:05:52;;;;;;;7.53;3.78;;;;;;;;;;4995351;28;20193;-84
2022/06/04 11:09:03;;;;;;;4.03;3.58;;;;;;;;;;4995952;28;20218;-83
2022/06/04 11:12:35;;;;;;;5.00;4.40;;;;;;;;;;4976708;28;20197;-84
2022/06/04 11:15:44;;;;;;;6.25;4.00;;;;;;;;;;4994185;28;20197;-84
2022/06/04 11:18:49;;;;;;;6.75;3.78;;;;;;;;;;5006709;28;20592;-83
2022/06/04 11:21:59;;;;;;;3.95;3.55;;;;;;;;;;4983112;28;20203;-84
2022/06/04 11:25:27;;;;;;;3.78;3.15;;;;;;;;;;4987359;28;20503;-84
2022/06/04 11:28:32;;;;;;;6.60;4.00;;;;;;;;;;4977868;28;20219;-84
2022/06/04 11:31:49;;;;;;;4.93;3.95;;;;;;;;;;4981968;28;20646;-83
2022/06/04 11:35:17;;;;;;;6.90;2.90;;;;;;;;;;4965144;28;20187;-84
2022/06/04 11:38:34;;;;;;;11.93;3.30;;;;;;;;;;4971758;28;20218;-83
2022/06/04 11:41:57;;;;;;;5.50;3.30;;;;;;;;;;4977402;28;20199;-84
2022/06/04 11:45:29;;;;;;;5.40;3.08;;;;;;;;;;4964847;28;20180;-84
2022/06/04 11:48:34;;;;;;;6.43;3.20;;;;;;;;;;4986378;28;20211;-84
2022/06/04 11:52:00;;;;;;;6.68;3.28;;;;;;;;;;4987184;28;20195;-84
2022/06/04 11:55:32;;;;;;;4.43;3.05;;;;;;;;;;4991187;28;20657;-84
2022/06/04 11:59:14;;;;;;;3.72;2.90;;;;;;;;;;4986744;28;20219;-84
2022/06/04 12:02:21;;;;;;;6.80;3.67;;;;;;;;;;4988434;28;20199;-84
2022/06/04 12:05:41;;;;;;;7.25;3.70;;;;;;;;;;4996536;28;20183;-85
2022/06/04 12:08:53;;;;;;;7.45;3.85;;;;;;;;;;4976423;28;20219;-85
2022/06/04 12:12:10;;;;;;;15.50;4.13;;;;;;;;;;4967090;28;20194;-84
2022/06/04 12:15:43;;;;;;;4.90;3.38;;;;;;;;;;4970078;28;20208;-85
2022/06/04 12:19:02;;;;;;;6.70;3.75;;;;;;;;;;4976193;28;20577;-85
2022/06/04 12:25:47;;;;;;;7.53;3.95;;;;;;;;;;4995604;28;20174;-84
2022/06/04 12:28:51;;;;;;;7.20;2.85;;;;;;;;;;4995742;28;20194;-85
2022/06/04 12:31:58;;;;;;;4.65;3.20;;;;;;;;;;5009316;28;20573;-84
2022/06/04 12:35:15;;;;;;;5.20;3.22;;;;;;;;;;4989094;28;20186;-84
2022/06/04 12:38:22;;;;;;;4.95;3.60;;;;;;;;;;5005795;28;20193;-84
2022/06/04 12:41:37;;;;;;;6.55;4.38;;;;;;;;;;4991429;28;20526;-84
2022/06/04 12:44:55;;;;;;;5.72;3.80;;;;;;;;;;5001931;28;20186;-84
2022/06/04 12:47:59;;;;;;;6.47;3.72;;;;;;;;;;5009902;28;20198;-84
2022/06/04 12:51:44;;;;;;;5.78;3.58;;;;;;;;;;4995667;28;20198;-84
2022/06/04 12:55:07;;;;;;;4.22;3.33;;;;;;;;;;4961694;28;20203;-84
2022/06/04 12:58:32;;;;;;;6.32;3.30;;;;;;;;;;4999523;28;20198;-84
2022/06/04 13:01:39;;;;;;;6.43;3.90;;;;;;;;;;5000818;28;20210;-84
2022/06/04 13:04:45;;;;;;;4.75;3.47;;;;;;;;;;5014023;28;20190;-84
2022/06/04 13:07:56;;;;;;;6.43;3.10;;;;;;;;;;4987751;28;20202;-85
2022/06/04 13:11:28;;;;;;;6.88;3.50;;;;;;;;;;4972195;28;20622;-84
2022/06/04 13:14:42;;;;;;;8.90;3.00;;;;;;;;;;4963968;28;20499;-84
2022/06/04 13:17:48;;;;;;;3.63;3.00;;;;;;;;;;4990786;28;20194;-85
2022/06/04 13:20:56;;;;;;;7.70;3.17;;;;;;;;;;4975345;28;20214;-84
2022/06/04 13:24:05;;;;;;;5.03;3.20;;;;;;;;;;5001425;28;20201;-84
2022/06/04 13:27:16;;;;;;;5.47;3.28;;;;;;;;;;4989652;28;20201;-85
2022/06/04 13:30:32;;;;;;;4.88;3.22;;;;;;;;;;5002351;28;20178;-84
2022/06/04 13:33:36;;;;;;;4.30;2.97;;;;;;;;;;4975865;28;20202;-85
2022/06/04 13:36:40;;;;;;;4.00;3.05;;;;;;;;;;4979961;28;20186;-84
2022/06/04 13:39:50;;;;;;;3.95;3.10;;;;;;;;;;4993623;28;20230;-84
2022/06/04 13:42:56;;;;;;;6.93;2.78;;;;;;;;;;4980264;28;20217;-84
2022/06/04 13:46:12;;;;;;;4.00;3.03;;;;;;;;;;4987998;28;20202;-84
2022/06/04 13:49:26;;;;;;;7.53;3.55;;;;;;;;;;4964069;28;20195;-85
2022/06/04 13:52:41;;;;;;;5.13;3.90;;;;;;;;;;4976899;28;20221;-85
2022/06/04 13:56:02;;;;;;;5.43;3.47;;;;;;;;;;4998362;28;20186;-84
2022/06/04 13:59:16;;;;;;;7.95;4.38;;;;;;;;;;4963353;28;20179;-84
2022/06/04 14:02:23;;;;;;;4.53;3.90;;;;;;;;;;4975027;28;20223;-84
2022/06/04 14:05:51;;;;;;;7.32;4.22;;;;;;;;;;4992880;28;20526;-84
2022/06/04 14:09:01;;;;;;;4.13;3.72;;;;;;;;;;4963055;28;20191;-83
2022/06/04 14:12:09;;;;;;;5.35;3.85;;;;;;;;;;4965977;28;20665;-84
2022/06/04 14:15:44;;;;;;;8.95;4.45;;;;;;;;;;4989857;28;20667;-84
2022/06/04 14:19:23;;;;;;;6.38;3.50;;;;;;;;;;4984012;28;20191;-84
2022/06/04 14:23:00;;;;;;;5.88;3.03;;;;;;;;;;4982478;28;20230;-84
2022/06/04 14:26:36;;;;;;;3.50;3.05;;;;;;;;;;5001223;28;20190;-83
2022/06/04 14:30:03;;;;;;;4.90;2.90;;;;;;;;;;4997056;28;20182;-83
2022/06/04 14:33:23;;;;;;;5.60;3.85;;;;;;;;;;5002504;28;20214;-84
2022/06/04 14:36:28;;;;;;;4.63;3.47;;;;;;;;;;4965061;28;20662;-84
2022/06/04 14:39:34;;;;;;;8.70;3.35;;;;;;;;;;4965269;28;20207;-84
2022/06/04 14:43:00;;;;;;;4.10;3.40;;;;;;;;;;4990812;28;20213;-84
2022/06/04 14:46:32;;;;;;;4.60;3.55;;;;;;;;;;4987608;28;20302;-84
2022/06/04 14:50:15;;;;;;;5.53;3.85;;;;;;;;;;4978226;28;20179;-84
2022/06/04 14:53:20;;;;;;;10.73;3.90;;;;;;;;;;4998517;28;20221;-84
2022/06/04 14:56:42;;;;;;;4.90;3.63;;;;;;;;;;4982567;28;20686;-83
2022/06/04 15:00:02;;;;;;;6.57;3.45;;;;;;;;;;4996035;28;20219;-83
2022/06/04 15:03:26;;;;;;;7.07;3.80;;;;;;;;;;5005979;28;20217;-83
2022/06/04 15:06:47;;;;;;;4.53;3.60;;;;;;;;;;4968796;28;20184;-83
2022/06/04 15:09:57;;;;;;;8.10;3.72;;;;;;;;;;5004826;28;20178;-83
2022/06/04 15:13:25;;;;;;;4.68;3.55;;;;;;;;;;5008187;28;20218;-82
2022/06/04 15:16:40;;;;;;;5.97;3.60;;;;;;;;;;4994547;28;20193;-83
2022/06/04 15:20:22;;;;;;;4.97;3.15;;;;;;;;;;4993533;28;20218;-83
2022/06/04 15:23:47;;;;;;;4.05;3.33;;;;;;;;;;4987274;28;20230;-83
2022/06/04 15:27:04;;;;;;;3.53;3.10;;;;;;;;;;4997145;28;20195;-83
2022/06/04 15:33:55;;;;;;;2.85;2.50;;;;;;;;;;5006713;28;20229;-83
2022/06/04 15:37:05;;;;;;;6.53;2.90;;;;;;;;;;4997305;28;20191;-84
2022/06/04 15:40:22;;;;;;;6.15;3.00;;;;;;;;;;4999551;28;20206;-82
2022/06/04 15:43:33;;;;;;;6.40;3.63;;;;;;;;;;5004998;28;20226;-83
2022/06/04 15:46:49;;;;;;;4.95;3.80;;;;;;;;;;4995696;28;20633;-84
2022/06/04 15:56:47;;;;;;;7.00;3.85;;;;;;;;;;4995797;28;20187;-83
2022/06/04 15:59:59;;;;;;;5.53;3.15;;;;;;;;;;4984973;28;20219;-83
2022/06/04 16:03:28;;;;;;;6.07;2.85;;;;;;;;;;4983990;28;20218;-83
2022/06/04 16:06:36;;;;;;;5.25;2.90;;;;;;;;;;4995836;28;20189;-84
2022/06/04 16:09:40;;;;;;;3.20;2.90;;;;;;;;;;4995327;28;20637;-83
2022/06/04 16:12:56;;;;;;;4.10;2.72;;;;;;;;;;4984091;28;20219;-83
2022/06/04 16:16:01;;;;;;;2.88;2.42;;;;;;;;;;4984795;28;20193;-84
2022/06/04 16:19:42;;;;;;;4.97;2.58;;;;;;;;;;4984213;28;20184;-83
2022/06/04 16:23:10;;;;;;;4.72;2.60;;;;;;;;;;4997613;28;20234;-83
2022/06/04 16:26:36;;;;;;;5.30;2.85;;;;;;;;;;4973793;28;20188;-83
2022/06/04 16:29:40;;;;;;;4.13;2.70;;;;;;;;;;4996431;28;20190;-83
2022/06/04 16:33:06;;;;;;;3.60;2.42;;;;;;;;;;4972957;28;20229;-83
2022/06/04 16:36:11;;;;;;;5.65;2.53;;;;;;;;;;4983833;28;20189;-83
2022/06/04 16:39:18;;;;;;;4.13;2.70;;;;;;;;;;4983632;28;20196;-83
2022/06/04 16:42:32;;;;;;;5.18;3.03;;;;;;;;;;4995458;28;20219;-83
2022/06/04 16:45:40;;;;;;;6.60;2.90;;;;;;;;;;4995450;28;20181;-84
2022/06/04 16:48:44;;;;;;;4.60;2.70;;;;;;;;;;4983483;28;20193;-83
2022/06/04 16:51:48;;;;;;;4.43;3.10;;;;;;;;;;4984474;28;20554;-83
2022/06/04 16:54:54;;;;;;;3.33;2.55;;;;;;;;;;4983411;28;20187;-83
2022/06/04 16:58:00;;;;;;;4.50;2.50;;;;;;;;;;4972574;28;20189;-83
2022/06/04 17:01:14;;;;;;;2.75;2.55;;;;;;;;;;4983273;28;20676;-83
2022/06/04 17:04:28;;;;;;;3.05;2.25;;;;;;;;;;4994309;28;20533;-83
2022/06/04 17:07:46;;;;;;;7.38;2.45;;;;;;;;;;4995405;28;20619;-83
2022/06/04 17:11:09;;;;;;;4.50;2.72;;;;;;;;;;4983171;28;20183;-83
2022/06/04 17:14:28;;;;;;;4.28;2.35;;;;;;;;;;4983942;28;20185;-83
2022/06/04 17:17:51;;;;;;;2.10;2.00;;;;;;;;;;4983179;28;20187;-83
2022/06/04 17:21:16;;;;;;;5.47;2.35;;;;;;;;;;4972067;28;20213;-83
2022/06/04 17:24:45;;;;;;;4.45;2.50;;;;;;;;;;4993729;28;20191;-83
2022/06/04 17:27:52;;;;;;;2.33;2.13;;;;;;;;;;4994332;28;20185;-83
2022/06/04 17:31:11;;;;;;;5.13;2.50;;;;;;;;;;4971509;28;20565;-83
2022/06/04 17:34:45;;;;;;;3.97;2.60;;;;;;;;;;4982533;28;20197;-83
2022/06/04 17:37:52;;;;;;;3.83;2.50;;;;;;;;;;4960532;28;20667;-83
2022/06/04 17:41:01;;;;;;;5.90;2.70;;;;;;;;;;4994345;28;20215;-83
2022/06/04 17:44:06;;;;;;;3.13;2.40;;;;;;;;;;4972203;28;20182;-83
2022/06/04 17:47:10;;;;;;;3.13;2.33;;;;;;;;;;4993849;28;20524;-83
2022/06/04 17:50:16;;;;;;;3.40;3.00;;;;;;;;;;4971759;28;20192;-83
2022/06/04 17:53:20;;;;;;;4.80;3.80;;;;;;;;;;4993711;28;20215;-83
2022/06/04 17:56:24;;;;;;;9.33;7.53;;;;;;;;;;4982725;28;20634;-83
2022/06/04 17:59:30;;;;;;;5.27;4.73;;;;;;;;;;4993808;28;20183;-83
2022/06/04 18:02:34;;;;;;;5.73;5.00;;;;;;;;;;4993891;28;20206;-83
2022/06/04 18:05:38;;;;;;;3.07;2.77;;;;;;;;;;4982654;28;20205;-83
2022/06/04 18:08:42;;;;;;;6.83;3.43;;;;;;;;;;4982361;28;20199;-83
2022/06/04 18:11:46;;;;;;;2.90;2.60;;;;;;;;;;4993740;28;20224;-83
2022/06/04 18:14:50;;;;;;;5.50;3.60;;;;;;;;;;4995775;28;20189;-83
2022/06/04 18:17:54;;;;;;;4.20;3.63;;;;;;;;;;4986488;28;20185;-83
2022/06/04 18:20:59;;;;;;;4.17;3.27;;;;;;;;;;4986157;28;20216;-83
2022/06/04 18:24:03;;;;;;;3.50;3.20;;;;;;;;;;5002310;23;20231;-84
2022/06/04 18:27:07;;;;;;;5.03;3.60;;;;;;;;;;4957791;28;20179;-83
2022/06/04 18:30:14;;;;;;;7.13;3.40;;;;;;;;;;4980521;28;20643;-84
2022/06/04 18:33:18;;;;;;;4.17;3.73;;;;;;;;;;4979660;28;20561;-84
2022/06/04 18:36:24;;;;;;;5.53;4.20;;;;;;;;;;4957654;28;20181;-84
2022/06/04 18:39:28;;;;;;;4.47;4.00;;;;;;;;;;4979885;28;20178;-84
2022/06/04 18:56:08;;;;;;;4.73;4.33;;;;;;;;;;4979477;28;20180;-84
2022/06/04 18:59:13;;;;;;;5.07;4.57;;;;;;;;;;4968414;28;20638;-84
2022/06/04 19:02:19;;;;;;;6.00;4.83;;;;;;;;;;4979659;28;20215;-84
2022/06/04 19:05:23;;;;;;;4.73;4.30;;;;;;;;;;4967685;28;20183;-84
2022/06/04 19:08:27;;;;;;;6.70;4.80;;;;;;;;;;4967453;28;20187;-84
2022/06/04 19:14:54;;;;;;;8.07;5.10;;;;;;;;;;4988204;28;20187;-83
2022/06/04 19:17:58;;;;;;;8.00;4.97;;;;;;;;;;4965704;28;20530;-84
2022/06/04 19:24:36;;;;;;;7.93;4.93;;;;;;;;;;4966510;28;20230;-84
2022/06/04 19:27:40;;;;;;;6.00;5.40;;;;;;;;;;4955656;28;20187;-84
2022/06/04 19:30:45;;;;;;;10.43;6.03;;;;;;;;;;4966667;28;20187;-84
2022/06/04 19:33:49;;;;;;;8.80;6.20;;;;;;;;;;4977144;28;20225;-84
2022/06/04 19:36:53;;;;;;;8.43;6.70;;;;;;;;;;4966600;28;20195;-84
2022/06/04 19:39:57;;;;;;;7.93;6.20;;;;;;;;;;4955232;28;20634;-83
2022/06/04 19:43:04;;;;;;;8.07;6.20;;;;;;;;;;4966497;28;20697;-84
2022/06/04 19:46:08;;;;;;;6.20;5.60;;;;;;;;;;4989462;28;20183;-83
2022/06/04 19:49:13;;;;;;;7.93;6.57;;;;;;;;;;4966373;28;20186;-84
2022/06/04 19:52:24;;;;;;;8.93;6.20;;;;;;;;;;4966641;28;20183;-83
2022/06/04 19:55:28;;;;;;;6.93;5.47;;;;;;;;;;4966237;28;20627;-84